Time;durP1;ratioP1;P1;durP2;ratioP2;P2;SDS_P1;SDS_P2;PMS_P1;PMS_P2;Temp;Humidity;BMP_temperature;BMP_pressure;BME280_temperature;BME280_humidity;BME280_pressure;Samples;Min_cycle;Max_cycle;Signal;HPM_P1;HPM_P2
2023/08/25 00:00:14;;;;;;;;;;;21.40;99.90;;;;;;5113141;28;20158;-71
2023/08/25 00:02:41;;;;;;;;;;;21.90;99.90;;;;;;5113959;28;20277;-71
2023/08/25 00:05:09;;;;;;;;;;;21.70;99.90;;;;;;5113553;28;20157;-70
2023/08/25 00:07:36;;;;;;;;;;;21.70;99.90;;;;;;5113722;28;20272;-71
2023/08/25 00:10:03;;;;;;;;;;;21.90;99.90;;;;;;5113155;28;20193;-72
2023/08/25 00:12:30;;;;;;;;;;;22.20;99.90;;;;;;5113183;28;20620;-71
2023/08/25 00:14:57;;;;;;;;;;;22.30;99.90;;;;;;5113452;28;20151;-70
2023/08/25 00:17:23;;;;;;;;;;;22.70;99.90;;;;;;5112981;28;20201;-71
2023/08/25 00:19:51;;;;;;;;;;;23.40;99.90;;;;;;5112208;28;20304;-70
2023/08/25 00:22:18;;;;;;;;;;;23.70;99.90;;;;;;5112605;28;20269;-70
2023/08/25 00:24:45;;;;;;;;;;;24.10;99.90;;;;;;5111595;28;20508;-72
2023/08/25 00:27:12;;;;;;;;;;;24.10;99.90;;;;;;5112720;28;20174;-72
2023/08/25 00:29:39;;;;;;;;;;;24.50;99.90;;;;;;5112309;28;20344;-72
2023/08/25 00:32:06;;;;;;;;;;;24.60;99.90;;;;;;5112557;28;20142;-72
2023/08/25 00:34:33;;;;;;;;;;;24.70;99.90;;;;;;5112674;28;20207;-72
2023/08/25 00:37:01;;;;;;;;;;;24.60;99.90;;;;;;5112096;28;20213;-72
2023/08/25 00:39:27;;;;;;;;;;;24.60;99.90;;;;;;5112253;28;20198;-71
2023/08/25 00:41:55;;;;;;;;;;;24.80;99.90;;;;;;5112517;28;20244;-71
2023/08/25 00:44:21;;;;;;;;;;;24.90;96.30;;;;;;5112701;28;20236;-72
2023/08/25 00:46:48;;;;;;;;;;;24.70;92.10;;;;;;5112776;28;20138;-71
2023/08/25 00:49:15;;;;;;;;;;;24.60;90.90;;;;;;5112068;28;20274;-71
2023/08/25 00:51:42;;;;;;;;;;;24.80;82.70;;;;;;5112498;28;20173;-71
2023/08/25 00:54:10;;;;;;;;;;;24.40;69.70;;;;;;5109738;28;20241;-72
2023/08/25 00:56:37;;;;;;;;;;;24.20;69.40;;;;;;5109827;28;20167;-70
2023/08/25 00:59:04;;;;;;;;;;;24.40;69.60;;;;;;5112267;28;20146;-71
2023/08/25 01:01:31;;;;;;;;;;;24.40;64.60;;;;;;5111929;28;20159;-69
2023/08/25 01:03:58;;;;;;;;;;;25.00;56.40;;;;;;5112211;28;20150;-69
2023/08/25 01:06:25;;;;;;;;;;;25.10;53.00;;;;;;5094290;28;20637;-70
2023/08/25 01:08:52;;;;;;;;;;;25.30;48.90;;;;;;5112336;28;20177;-72
2023/08/25 01:11:37;;;;;;;;;;;25.40;54.80;;;;;;5112467;28;20184;-70
2023/08/25 01:14:07;;;;;;;;;;;25.70;44.90;;;;;;5112151;28;20249;-70
2023/08/25 01:16:36;;;;;;;;;;;25.50;53.30;;;;;;5112548;28;20255;-71
2023/08/25 01:19:05;;;;;;;;;;;26.10;51.30;;;;;;5111973;28;20701;-71
2023/08/25 01:21:35;;;;;;;;;;;26.40;44.40;;;;;;5112386;28;20201;-70
2023/08/25 01:24:16;;;;;;;;;;;26.30;41.80;;;;;;5111757;28;20176;-73
2023/08/25 01:26:43;;;;;;;;;;;26.70;31.30;;;;;;5112328;28;20176;-70
2023/08/25 01:29:10;;;;;;;;;;;26.60;32.50;;;;;;5094303;28;20984;-70
2023/08/25 01:31:37;;;;;;;;;;;26.80;33.20;;;;;;5112104;28;20190;-70
2023/08/25 01:34:04;;;;;;;;;;;26.30;34.00;;;;;;5094080;28;20606;-70
2023/08/25 01:36:41;;;;;;;;;;;26.70;32.80;;;;;;5111889;28;20178;-70
2023/08/25 01:39:09;;;;;;;;;;;26.70;30.00;;;;;;5113015;28;20294;-71
2023/08/25 01:41:36;;;;;;;;;;;26.70;29.40;;;;;;5112717;28;20178;-72
2023/08/25 01:44:04;;;;;;;;;;;26.90;24.30;;;;;;5112619;28;20161;-70
2023/08/25 01:46:33;;;;;;;;;;;27.00;27.40;;;;;;5112347;28;20185;-71
2023/08/25 01:49:01;;;;;;;;;;;27.20;27.10;;;;;;5093455;28;20558;-69
2023/08/25 01:51:29;;;;;;;;;;;27.70;23.50;;;;;;5112062;28;20157;-70
2023/08/25 01:53:56;;;;;;;;;;;27.90;23.80;;;;;;5111721;28;20173;-70
2023/08/25 01:56:23;;;;;;;;;;;28.00;26.40;;;;;;5112677;28;20170;-71
2023/08/25 01:58:50;;;;;;;;;;;27.30;19.10;;;;;;5112573;28;20177;-70
2023/08/25 02:01:17;;;;;;;;;;;27.20;20.30;;;;;;5112250;28;20213;-75
2023/08/25 02:03:44;;;;;;;;;;;27.30;25.80;;;;;;5111944;28;20171;-69
2023/08/25 02:06:11;;;;;;;;;;;27.80;19.50;;;;;;5111819;28;20252;-70
2023/08/25 02:08:38;;;;;;;;;;;27.70;20.60;;;;;;5111336;28;20163;-70
2023/08/25 02:11:05;;;;;;;;;;;27.90;21.10;;;;;;5112237;28;20719;-69
2023/08/25 02:13:32;;;;;;;;;;;27.80;17.30;;;;;;5111969;28;20154;-70
2023/08/25 02:15:58;;;;;;;;;;;27.90;18.00;;;;;;5111875;28;20237;-71
2023/08/25 02:18:25;;;;;;;;;;;27.60;14.50;;;;;;5111822;28;20198;-70
2023/08/25 02:20:55;;;;;;;;;;;26.80;15.20;;;;;;5111759;28;20177;-71
2023/08/25 02:23:22;;;;;;;;;;;26.50;16.80;;;;;;5112005;28;20204;-71
2023/08/25 02:25:49;;;;;;;;;;;26.40;21.50;;;;;;5111681;28;20215;-71
2023/08/25 02:28:16;;;;;;;;;;;26.80;20.50;;;;;;5112166;28;20161;-71
2023/08/25 02:30:44;;;;;;;;;;;26.80;18.80;;;;;;5111895;28;20182;-69
2023/08/25 02:33:11;;;;;;;;;;;27.00;20.50;;;;;;5111716;28;20196;-71
2023/08/25 02:35:38;;;;;;;;;;;27.20;18.70;;;;;;5111869;28;20213;-70
2023/08/25 02:38:06;;;;;;;;;;;27.30;20.80;;;;;;5112076;28;20708;-71
2023/08/25 02:40:33;;;;;;;;;;;27.40;19.10;;;;;;5111488;28;20234;-70
2023/08/25 02:43:02;;;;;;;;;;;27.50;18.10;;;;;;5111601;28;20177;-69
2023/08/25 02:45:29;;;;;;;;;;;27.50;18.10;;;;;;5111433;28;20194;-70
2023/08/25 02:47:56;;;;;;;;;;;27.30;14.30;;;;;;5113908;28;20243;-70
2023/08/25 02:50:24;;;;;;;;;;;27.40;16.00;;;;;;5116132;28;20269;-69
2023/08/25 02:52:52;;;;;;;;;;;27.30;17.70;;;;;;5097318;28;20183;-70
2023/08/25 02:55:20;;;;;;;;;;;27.40;19.90;;;;;;5115437;28;20204;-69
2023/08/25 02:57:47;;;;;;;;;;;27.00;19.40;;;;;;5114869;28;20490;-69
2023/08/25 03:00:15;;;;;;;;;;;27.10;19.30;;;;;;5115365;28;20758;-68
2023/08/25 03:02:42;;;;;;;;;;;27.00;21.60;;;;;;5115711;28;20167;-69
2023/08/25 03:05:09;;;;;;;;;;;26.80;19.50;;;;;;5115402;28;20224;-69
2023/08/25 03:07:37;;;;;;;;;;;27.40;20.10;;;;;;5097172;28;20285;-70
2023/08/25 03:10:04;;;;;;;;;;;27.60;19.60;;;;;;5115548;28;20174;-70
2023/08/25 03:12:31;;;;;;;;;;;27.60;17.00;;;;;;5115508;28;20175;-70
2023/08/25 03:14:58;;;;;;;;;;;27.90;16.40;;;;;;5115394;28;20182;-70
2023/08/25 03:17:26;;;;;;;;;;;28.00;14.10;;;;;;5097228;28;20653;-69
2023/08/25 03:19:53;;;;;;;;;;;28.10;15.00;;;;;;5115341;28;20230;-70
2023/08/25 03:22:20;;;;;;;;;;;28.10;13.40;;;;;;5097158;28;20689;-70
2023/08/25 03:24:47;;;;;;;;;;;27.50;13.80;;;;;;5115006;28;20167;-71
2023/08/25 03:27:14;;;;;;;;;;;27.30;12.20;;;;;;5096834;28;20165;-70
2023/08/25 03:29:44;;;;;;;;;;;27.50;13.70;;;;;;5115435;28;20179;-70
2023/08/25 03:32:11;;;;;;;;;;;27.70;13.90;;;;;;5115342;28;20192;-70
2023/08/25 03:34:38;;;;;;;;;;;27.80;13.10;;;;;;5122755;27;20528;-69
2023/08/25 03:37:08;;;;;;;;;;;27.50;10.70;;;;;;5130200;27;20155;-68
2023/08/25 03:39:35;;;;;;;;;;;27.10;11.10;;;;;;5136369;27;20200;-70
2023/08/25 03:42:02;;;;;;;;;;;26.80;12.70;;;;;;5137039;27;20249;-70
2023/08/25 03:44:29;;;;;;;;;;;26.80;11.80;;;;;;5118529;27;20578;-70
2023/08/25 03:46:56;;;;;;;;;;;26.90;12.80;;;;;;5137249;27;20181;-70
2023/08/25 03:49:27;;;;;;;;;;;27.00;16.40;;;;;;5136820;27;20259;-70
2023/08/25 03:51:58;;;;;;;;;;;27.30;15.30;;;;;;5136887;27;20256;-70
2023/08/25 03:54:31;;;;;;;;;;;27.40;14.70;;;;;;5136743;27;20201;-71
2023/08/25 03:56:58;;;;;;;;;;;27.10;14.70;;;;;;5117680;27;20196;-71
2023/08/25 03:59:25;;;;;;;;;;;26.90;15.30;;;;;;5136454;27;20203;-70
2023/08/25 04:01:52;;;;;;;;;;;26.80;16.00;;;;;;5117772;27;20187;-70
2023/08/25 04:04:18;;;;;;;;;;;26.70;16.50;;;;;;5136282;27;20509;-68
2023/08/25 04:06:45;;;;;;;;;;;26.70;15.80;;;;;;5136941;27;20136;-69
2023/08/25 04:09:13;;;;;;;;;;;26.80;16.50;;;;;;5136449;27;20132;-68
2023/08/25 04:11:40;;;;;;;;;;;26.80;15.40;;;;;;5135986;27;20180;-68
2023/08/25 04:14:07;;;;;;;;;;;26.60;16.10;;;;;;5136249;27;20170;-68
2023/08/25 04:16:33;;;;;;;;;;;26.40;17.60;;;;;;5135983;27;20183;-69
2023/08/25 04:19:00;;;;;;;;;;;26.40;17.10;;;;;;5135065;27;20216;-68
2023/08/25 04:21:27;;;;;;;;;;;26.60;18.50;;;;;;5135679;27;20697;-68
2023/08/25 04:23:54;;;;;;;;;;;26.20;14.10;;;;;;5135101;27;20157;-68
2023/08/25 04:26:21;;;;;;;;;;;26.10;15.70;;;;;;5134854;27;20172;-68
2023/08/25 04:28:48;;;;;;;;;;;25.70;14.70;;;;;;5134652;27;20570;-68
2023/08/25 04:31:15;;;;;;;;;;;25.70;18.10;;;;;;5135073;27;20230;-68
2023/08/25 04:33:41;;;;;;;;;;;25.80;17.80;;;;;;5134110;27;20192;-68
2023/08/25 04:36:08;;;;;;;;;;;25.70;17.80;;;;;;5135072;27;20226;-68
2023/08/25 04:38:35;;;;;;;;;;;25.80;17.10;;;;;;5134419;27;20163;-68
2023/08/25 04:41:02;;;;;;;;;;;25.70;16.10;;;;;;5134664;27;20150;-68
2023/08/25 04:43:29;;;;;;;;;;;25.50;15.70;;;;;;5134196;27;20165;-70
2023/08/25 04:45:56;;;;;;;;;;;25.40;17.10;;;;;;5134271;27;20508;-69
2023/08/25 04:48:23;;;;;;;;;;;25.40;17.60;;;;;;5134287;27;20154;-69
2023/08/25 04:50:50;;;;;;;;;;;25.30;17.00;;;;;;5122837;27;20189;-68
2023/08/25 04:53:17;;;;;;;;;;;25.30;19.20;;;;;;5113605;28;20258;-68
2023/08/25 04:55:44;;;;;;;;;;;25.20;18.30;;;;;;5113445;28;20466;-68
2023/08/25 04:58:11;;;;;;;;;;;25.20;17.20;;;;;;5093607;28;20580;-69
2023/08/25 05:00:37;;;;;;;;;;;25.20;15.80;;;;;;5110892;28;20680;-69
2023/08/25 05:03:04;;;;;;;;;;;25.10;17.70;;;;;;5090999;28;20160;-69
2023/08/25 05:05:32;;;;;;;;;;;24.60;18.00;;;;;;5091535;28;20232;-69
2023/08/25 05:07:59;;;;;;;;;;;24.20;25.00;;;;;;5102799;28;20178;-68
2023/08/25 05:10:25;;;;;;;;;;;23.90;29.90;;;;;;5110620;28;20177;-68
2023/08/25 05:12:52;;;;;;;;;;;23.70;34.50;;;;;;5117986;27;20554;-69
2023/08/25 05:15:19;;;;;;;;;;;23.40;39.80;;;;;;5073142;28;20516;-69
2023/08/25 05:17:46;;;;;;;;;;;23.30;47.90;;;;;;5092539;28;20160;-70
2023/08/25 05:20:18;;;;;;;;;;;23.00;56.00;;;;;;5111355;28;20544;-72
2023/08/25 05:22:44;;;;;;;;;;;22.90;58.70;;;;;;5112036;28;20138;-72
2023/08/25 05:25:12;;;;;;;;;;;22.90;69.10;;;;;;5111513;28;20186;-69
2023/08/25 05:27:39;;;;;;;;;;;22.80;75.90;;;;;;5111935;28;20176;-69
2023/08/25 05:30:06;;;;;;;;;;;22.60;91.00;;;;;;5111988;28;20146;-72
2023/08/25 05:32:33;;;;;;;;;;;22.50;93.50;;;;;;5112487;28;20215;-70
2023/08/25 05:35:01;;;;;;;;;;;22.40;94.00;;;;;;5111458;28;20209;-70
2023/08/25 05:37:28;;;;;;;;;;;22.20;98.40;;;;;;5111682;28;20170;-70
2023/08/25 05:39:55;;;;;;;;;;;22.20;99.90;;;;;;5109103;27;20588;-70
2023/08/25 05:42:26;;;;;;;;;;;22.20;99.90;;;;;;5092240;28;20503;-70
2023/08/25 05:44:53;;;;;;;;;;;22.20;99.90;;;;;;5091624;28;20536;-70
2023/08/25 05:47:20;;;;;;;;;;;22.10;99.90;;;;;;5104240;28;20153;-72
2023/08/25 05:49:47;;;;;;;;;;;21.90;99.90;;;;;;5111622;28;20152;-70
2023/08/25 05:52:14;;;;;;;;;;;21.90;99.90;;;;;;5112431;28;20181;-72
2023/08/25 05:54:40;;;;;;;;;;;21.70;99.90;;;;;;5111999;28;20187;-70
2023/08/25 05:57:08;;;;;;;;;;;21.60;99.90;;;;;;5111966;28;20189;-70
2023/08/25 05:59:35;;;;;;;;;;;21.50;99.90;;;;;;5110545;28;20216;-70
2023/08/25 06:02:02;;;;;;;;;;;21.50;99.90;;;;;;5111429;28;20197;-69
2023/08/25 06:04:32;;;;;;;;;;;21.40;99.90;;;;;;5112002;28;20184;-70
2023/08/25 06:06:59;;;;;;;;;;;21.20;99.90;;;;;;5111944;28;20417;-72
2023/08/25 06:09:26;;;;;;;;;;;21.00;99.90;;;;;;5111148;28;20202;-72
2023/08/25 06:11:53;;;;;;;;;;;20.90;99.90;;;;;;5111340;28;20292;-72
2023/08/25 06:14:20;;;;;;;;;;;20.60;99.90;;;;;;5111513;28;20157;-71
2023/08/25 06:16:47;;;;;;;;;;;20.60;99.90;;;;;;5111682;28;20159;-71
2023/08/25 06:19:17;;;;;;;;;;;20.50;99.90;;;;;;5111159;28;20245;-72
2023/08/25 06:21:44;;;;;;;;;;;20.30;99.90;;;;;;5113212;28;20153;-73
2023/08/25 06:24:12;;;;;;;;;;;20.30;99.90;;;;;;5118445;27;20224;-71
2023/08/25 06:26:38;;;;;;;;;;;20.30;99.90;;;;;;5112044;28;20146;-69
2023/08/25 06:29:08;;;;;;;;;;;20.10;99.90;;;;;;5114490;28;20182;-70
2023/08/25 06:31:35;;;;;;;;;;;20.10;99.90;;;;;;5114583;28;20149;-71
2023/08/25 06:34:04;;;;;;;;;;;20.00;99.90;;;;;;5114263;28;20498;-71
2023/08/25 06:36:32;;;;;;;;;;;20.00;99.90;;;;;;5115214;28;20171;-71
2023/08/25 06:38:59;;;;;;;;;;;20.00;99.90;;;;;;5098917;27;20204;-70
2023/08/25 06:41:26;;;;;;;;;;;19.90;99.90;;;;;;5116730;27;20371;-71
2023/08/25 06:43:56;;;;;;;;;;;19.80;99.90;;;;;;5117720;27;20149;-69
2023/08/25 06:46:23;;;;;;;;;;;19.70;99.90;;;;;;5119503;27;20180;-70
2023/08/25 06:48:50;;;;;;;;;;;19.70;99.90;;;;;;5119169;27;20524;-71
2023/08/25 06:51:17;;;;;;;;;;;19.70;99.90;;;;;;5121767;27;20172;-71
2023/08/25 06:53:44;;;;;;;;;;;19.60;99.90;;;;;;5124112;27;20478;-70
2023/08/25 06:56:11;;;;;;;;;;;19.50;99.90;;;;;;5123139;27;20164;-72
2023/08/25 06:58:38;;;;;;;;;;;19.40;99.90;;;;;;5127243;27;20220;-72
2023/08/25 07:01:05;;;;;;;;;;;19.40;99.90;;;;;;5134872;27;20175;-71
2023/08/25 07:03:31;;;;;;;;;;;19.30;99.90;;;;;;5135226;27;20198;-72
2023/08/25 07:05:58;;;;;;;;;;;19.10;99.90;;;;;;5134913;27;20172;-72
2023/08/25 07:08:25;;;;;;;;;;;19.10;99.90;;;;;;5113272;28;20253;-72
2023/08/25 07:10:52;;;;;;;;;;;19.00;99.90;;;;;;5114733;28;20644;-73
2023/08/25 07:13:20;;;;;;;;;;;18.80;99.90;;;;;;5114899;28;20238;-73
2023/08/25 07:15:46;;;;;;;;;;;18.70;99.90;;;;;;5114965;28;20675;-71
2023/08/25 07:18:13;;;;;;;;;;;18.60;99.90;;;;;;5115081;28;20155;-70
2023/08/25 07:20:40;;;;;;;;;;;18.50;99.90;;;;;;5114921;28;20210;-73
2023/08/25 07:23:07;;;;;;;;;;;18.40;99.90;;;;;;5115179;28;20147;-73
2023/08/25 07:25:34;;;;;;;;;;;18.20;99.90;;;;;;5115489;28;20142;-72
2023/08/25 07:28:01;;;;;;;;;;;18.10;99.90;;;;;;5114831;28;20184;-71
2023/08/25 07:30:28;;;;;;;;;;;18.00;99.90;;;;;;5115480;28;20245;-72
2023/08/25 07:32:55;;;;;;;;;;;18.00;99.90;;;;;;5114630;28;20222;-72
2023/08/25 07:35:22;;;;;;;;;;;17.90;99.90;;;;;;5093183;28;20179;-72
2023/08/25 07:37:50;;;;;;;;;;;17.90;99.90;;;;;;5112753;28;20159;-72
2023/08/25 07:40:17;;;;;;;;;;;17.80;99.90;;;;;;5113330;28;20199;-72
2023/08/25 07:42:44;;;;;;;;;;;17.70;99.90;;;;;;5113031;28;20176;-73
2023/08/25 07:45:11;;;;;;;;;;;17.60;99.90;;;;;;5113538;28;20171;-70
2023/08/25 07:47:38;;;;;;;;;;;17.50;99.90;;;;;;5113379;28;20142;-74
2023/08/25 07:50:05;;;;;;;;;;;17.50;99.90;;;;;;5113722;28;20138;-72
2023/08/25 07:52:31;;;;;;;;;;;17.40;99.90;;;;;;5112813;28;20154;-72
2023/08/25 07:54:58;;;;;;;;;;;17.40;99.90;;;;;;5112987;28;20135;-72
2023/08/25 07:57:25;;;;;;;;;;;17.30;99.90;;;;;;5113521;28;20130;-73
2023/08/25 07:59:52;;;;;;;;;;;17.20;99.90;;;;;;5113316;28;20207;-73
2023/08/25 08:02:19;;;;;;;;;;;17.10;99.90;;;;;;5112851;28;20617;-72
2023/08/25 08:04:46;;;;;;;;;;;17.10;99.90;;;;;;5113609;28;20848;-74
2023/08/25 08:07:13;;;;;;;;;;;16.90;99.90;;;;;;5113430;28;20153;-73
2023/08/25 08:09:40;;;;;;;;;;;16.90;99.90;;;;;;5111955;28;20642;-73
2023/08/25 08:12:07;;;;;;;;;;;16.80;99.90;;;;;;5113249;28;20522;-72
2023/08/25 08:14:35;;;;;;;;;;;16.80;99.90;;;;;;5113209;28;20160;-73
2023/08/25 08:17:03;;;;;;;;;;;16.70;99.90;;;;;;5112908;27;20148;-72
2023/08/25 08:19:30;;;;;;;;;;;16.70;99.90;;;;;;5124554;27;20208;-71
2023/08/25 08:21:57;;;;;;;;;;;16.60;99.90;;;;;;5113185;27;20314;-70
2023/08/25 08:24:24;;;;;;;;;;;16.50;99.90;;;;;;5112667;28;20520;-72
2023/08/25 08:26:51;;;;;;;;;;;16.40;99.90;;;;;;5113032;28;20016;-70
2023/08/25 08:29:18;;;;;;;;;;;16.30;99.90;;;;;;5113117;28;20161;-72
2023/08/25 08:31:45;;;;;;;;;;;16.20;99.90;;;;;;5112539;28;20167;-73
2023/08/25 08:34:11;;;;;;;;;;;16.10;99.90;;;;;;5112668;28;20220;-73
2023/08/25 08:36:39;;;;;;;;;;;16.10;99.90;;;;;;5112408;28;20817;-73
2023/08/25 08:39:06;;;;;;;;;;;16.00;99.90;;;;;;5112222;28;20179;-74
2023/08/25 08:41:32;;;;;;;;;;;15.90;99.90;;;;;;5112254;28;20147;-71
2023/08/25 08:44:01;;;;;;;;;;;15.80;99.90;;;;;;5112405;28;20143;-71
2023/08/25 08:46:31;;;;;;;;;;;15.70;99.90;;;;;;5110880;28;20139;-74
2023/08/25 08:48:58;;;;;;;;;;;15.70;99.90;;;;;;5112835;28;20651;-73
2023/08/25 08:51:26;;;;;;;;;;;15.60;99.90;;;;;;5112524;28;20584;-73
2023/08/25 08:53:53;;;;;;;;;;;15.50;99.90;;;;;;5112764;28;20156;-74
2023/08/25 08:56:20;;;;;;;;;;;15.50;99.90;;;;;;5112387;28;20157;-73
2023/08/25 08:58:47;;;;;;;;;;;15.40;99.90;;;;;;5112263;28;20562;-71
2023/08/25 09:01:15;;;;;;;;;;;15.40;99.90;;;;;;5111962;28;20607;-73
2023/08/25 09:03:47;;;;;;;;;;;15.40;99.90;;;;;;5112286;28;20204;-71
2023/08/25 09:06:14;;;;;;;;;;;15.30;99.90;;;;;;5112014;28;20594;-72
2023/08/25 09:08:43;;;;;;;;;;;15.20;99.90;;;;;;5111835;28;20658;-73
2023/08/25 09:11:10;;;;;;;;;;;15.20;99.90;;;;;;5112030;28;20150;-73
2023/08/25 09:13:37;;;;;;;;;;;15.10;99.90;;;;;;5112002;28;20142;-73
2023/08/25 09:16:14;;;;;;;;;;;15.10;99.90;;;;;;5112333;28;20165;-74
2023/08/25 09:18:41;;;;;;;;;;;15.00;99.90;;;;;;5111689;28;20250;-73
2023/08/25 09:21:19;;;;;;;;;;;14.90;99.90;;;;;;5112195;28;20146;-68
2023/08/25 09:23:54;;;;;;;;;;;14.90;99.90;;;;;;5093827;28;20163;-75
2023/08/25 09:26:21;;;;;;;;;;;14.80;99.90;;;;;;5112373;28;20169;-74
2023/08/25 09:28:48;;;;;;;;;;;14.90;99.90;;;;;;5111769;28;20161;-71
2023/08/25 09:31:22;;;;;;;;;;;14.90;99.90;;;;;;5111593;28;20173;-73
2023/08/25 09:33:50;;;;;;;;;;;14.90;99.90;;;;;;5111627;28;20576;-70
2023/08/25 09:36:17;;;;;;;;;;;14.90;99.90;;;;;;5111631;28;20148;-72
2023/08/25 09:38:44;;;;;;;;;;;14.80;99.90;;;;;;5111540;28;20685;-70
2023/08/25 09:41:12;;;;;;;;;;;14.70;99.90;;;;;;5111570;28;20140;-69
2023/08/25 09:43:39;;;;;;;;;;;14.70;99.90;;;;;;5112468;28;20145;-69
2023/08/25 09:46:08;;;;;;;;;;;14.60;99.90;;;;;;5112984;28;20218;-71
2023/08/25 09:48:35;;;;;;;;;;;14.60;99.90;;;;;;5112982;28;20145;-69
2023/08/25 09:51:03;;;;;;;;;;;14.50;99.90;;;;;;5112815;28;20151;-69
2023/08/25 09:53:33;;;;;;;;;;;14.50;99.90;;;;;;5113170;28;20203;-70
2023/08/25 09:56:06;;;;;;;;;;;14.50;99.90;;;;;;5112543;28;20167;-71
2023/08/25 09:58:34;;;;;;;;;;;14.40;99.90;;;;;;5113395;28;20140;-72
2023/08/25 10:01:01;;;;;;;;;;;14.40;99.90;;;;;;5115574;28;20166;-71
2023/08/25 10:03:28;;;;;;;;;;;14.30;99.90;;;;;;5112834;28;20167;-70
2023/08/25 10:05:55;;;;;;;;;;;14.20;99.90;;;;;;5094773;28;20157;-69
2023/08/25 10:08:22;;;;;;;;;;;14.20;99.90;;;;;;5112830;28;20267;-72
2023/08/25 10:10:49;;;;;;;;;;;14.20;99.90;;;;;;5113044;28;20182;-72
2023/08/25 10:13:18;;;;;;;;;;;14.20;99.90;;;;;;5112917;28;20163;-73
2023/08/25 10:15:46;;;;;;;;;;;14.40;99.90;;;;;;5113257;28;20165;-74
2023/08/25 10:18:13;;;;;;;;;;;14.40;99.90;;;;;;5113486;28;20181;-73
2023/08/25 10:20:40;;;;;;;;;;;14.50;99.90;;;;;;5113108;28;20790;-71
2023/08/25 10:23:08;;;;;;;;;;;14.50;99.90;;;;;;5113111;28;20613;-72
2023/08/25 10:25:36;;;;;;;;;;;14.60;99.90;;;;;;5112194;28;20157;-72
2023/08/25 10:28:04;;;;;;;;;;;14.60;99.90;;;;;;5112426;28;20523;-70
2023/08/25 10:30:32;;;;;;;;;;;14.60;99.90;;;;;;5112292;28;20228;-72
2023/08/25 10:33:00;;;;;;;;;;;14.60;99.90;;;;;;5112588;28;20170;-70
2023/08/25 10:35:41;;;;;;;;;;;14.60;99.90;;;;;;5113416;28;20164;-68
2023/08/25 10:38:17;;;;;;;;;;;14.60;99.90;;;;;;5118782;28;20169;-68
2023/08/25 10:40:54;;;;;;;;;;;14.70;99.90;;;;;;5099875;28;20236;-70
2023/08/25 10:43:24;;;;;;;;;;;14.60;99.90;;;;;;5120031;28;20210;-70
2023/08/25 10:45:52;;;;;;;;;;;14.60;99.90;;;;;;5111029;28;20545;-71
2023/08/25 10:48:21;;;;;;;;;;;14.60;99.90;;;;;;5110911;28;20177;-69
2023/08/25 10:50:52;;;;;;;;;;;14.60;99.90;;;;;;5110664;28;20202;-72
2023/08/25 10:53:37;;;;;;;;;;;14.60;99.90;;;;;;5110751;28;20223;-70
2023/08/25 10:56:16;;;;;;;;;;;14.50;99.90;;;;;;5110452;28;20165;-72
2023/08/25 10:58:43;;;;;;;;;;;14.40;99.90;;;;;;5110675;28;20175;-72
2023/08/25 11:01:10;;;;;;;;;;;14.40;99.90;;;;;;5110616;28;20206;-74
2023/08/25 11:04:06;;;;;;;;;;;14.40;99.90;;;;;;5110169;28;20153;-72
2023/08/25 11:06:37;;;;;;;;;;;14.30;99.90;;;;;;5110755;28;20164;-73
2023/08/25 11:09:04;;;;;;;;;;;14.20;99.90;;;;;;5111647;28;20147;-70
2023/08/25 11:11:31;;;;;;;;;;;14.20;99.90;;;;;;5113313;28;20157;-73
2023/08/25 11:13:59;;;;;;;;;;;14.10;99.90;;;;;;5095561;28;20174;-71
2023/08/25 11:16:26;;;;;;;;;;;14.10;99.90;;;;;;5114712;28;20170;-72
2023/08/25 11:18:53;;;;;;;;;;;14.10;99.90;;;;;;5114028;28;20276;-71
2023/08/25 11:21:24;;;;;;;;;;;14.10;99.90;;;;;;5096313;28;20162;-69
2023/08/25 11:23:51;;;;;;;;;;;14.10;99.90;;;;;;5095662;28;20139;-71
2023/08/25 11:26:18;;;;;;;;;;;14.10;99.90;;;;;;5114817;28;20162;-73
2023/08/25 11:28:50;;;;;;;;;;;14.00;99.90;;;;;;5109446;27;20160;-72
2023/08/25 11:31:20;;;;;;;;;;;14.00;99.90;;;;;;5093577;28;20347;-71
2023/08/25 11:33:47;;;;;;;;;;;14.00;99.90;;;;;;5098561;28;20019;-71
2023/08/25 11:36:17;;;;;;;;;;;14.00;99.90;;;;;;5096148;28;20157;-70
2023/08/25 11:38:48;;;;;;;;;;;14.10;99.90;;;;;;5113736;28;20148;-72
2023/08/25 11:41:16;;;;;;;;;;;14.10;99.90;;;;;;5113898;28;20200;-72
2023/08/25 11:43:45;;;;;;;;;;;14.10;99.90;;;;;;5113736;28;20140;-73
2023/08/25 11:46:13;;;;;;;;;;;14.20;99.90;;;;;;5114118;28;20505;-71
2023/08/25 11:48:40;;;;;;;;;;;14.20;99.90;;;;;;5113687;28;20058;-73
2023/08/25 11:51:17;;;;;;;;;;;14.20;99.90;;;;;;5113773;28;20250;-72
2023/08/25 11:53:47;;;;;;;;;;;14.30;99.90;;;;;;5113858;28;20141;-72
2023/08/25 11:56:19;;;;;;;;;;;14.40;99.90;;;;;;5113960;28;20151;-72
2023/08/25 11:58:50;;;;;;;;;;;14.40;99.90;;;;;;5113815;28;20154;-73
2023/08/25 12:01:17;;;;;;;;;;;14.40;99.90;;;;;;5112789;28;20247;-70
2023/08/25 12:03:44;;;;;;;;;;;14.30;99.90;;;;;;5113205;28;20160;-70
2023/08/25 12:06:12;;;;;;;;;;;14.30;99.90;;;;;;5113420;28;20152;-72
2023/08/25 12:08:40;;;;;;;;;;;14.20;99.90;;;;;;5113445;28;20231;-71
2023/08/25 12:11:07;;;;;;;;;;;14.20;99.90;;;;;;5113609;28;20151;-70
2023/08/25 12:13:35;;;;;;;;;;;14.10;99.90;;;;;;5112863;28;20030;-69
2023/08/25 12:16:03;;;;;;;;;;;14.10;99.90;;;;;;5113212;28;20201;-69
2023/08/25 12:18:36;;;;;;;;;;;14.10;99.90;;;;;;5113070;28;20603;-69
2023/08/25 12:21:05;;;;;;;;;;;14.10;99.90;;;;;;5113181;28;20236;-68
2023/08/25 12:23:33;;;;;;;;;;;14.10;99.90;;;;;;5094831;28;20208;-68
2023/08/25 12:26:00;;;;;;;;;;;14.10;99.90;;;;;;5113270;28;20224;-67
2023/08/25 12:28:26;;;;;;;;;;;14.00;99.90;;;;;;5112585;28;20145;-68
2023/08/25 12:30:56;;;;;;;;;;;14.10;99.90;;;;;;5113206;28;20149;-68
2023/08/25 12:33:23;;;;;;;;;;;14.00;99.90;;;;;;5112485;28;20163;-69
2023/08/25 12:35:50;;;;;;;;;;;14.00;99.90;;;;;;5112595;28;20153;-68
2023/08/25 12:38:17;;;;;;;;;;;14.00;99.90;;;;;;5112734;28;20161;-67
2023/08/25 12:40:44;;;;;;;;;;;13.90;99.90;;;;;;5112695;28;20259;-68
2023/08/25 12:43:11;;;;;;;;;;;13.90;99.90;;;;;;5114614;27;20726;-69
2023/08/25 12:45:38;;;;;;;;;;;13.80;99.90;;;;;;5112953;27;20143;-67
2023/08/25 12:48:08;;;;;;;;;;;13.70;99.90;;;;;;5113937;28;20139;-67
2023/08/25 12:50:35;;;;;;;;;;;13.60;99.90;;;;;;5113865;28;20180;-67
2023/08/25 12:53:03;;;;;;;;;;;13.60;99.90;;;;;;5113364;28;20607;-69
2023/08/25 12:55:31;;;;;;;;;;;13.50;99.90;;;;;;5114033;28;20179;-68
2023/08/25 12:57:58;;;;;;;;;;;13.50;99.90;;;;;;5113395;28;20182;-69
2023/08/25 13:00:25;;;;;;;;;;;13.40;99.90;;;;;;5113939;28;20550;-69
2023/08/25 13:02:52;;;;;;;;;;;13.30;99.90;;;;;;5113815;28;20137;-70
2023/08/25 13:05:19;;;;;;;;;;;13.30;99.90;;;;;;5095018;28;20162;-69
2023/08/25 13:07:45;;;;;;;;;;;13.20;99.90;;;;;;5113436;28;20205;-69
2023/08/25 13:10:12;;;;;;;;;;;13.20;99.90;;;;;;5099984;28;20143;-69
2023/08/25 13:12:39;;;;;;;;;;;13.20;99.90;;;;;;5112269;28;20145;-69
2023/08/25 13:15:07;;;;;;;;;;;13.10;99.90;;;;;;5112662;28;20186;-69
2023/08/25 13:17:34;;;;;;;;;;;13.10;99.90;;;;;;5113697;28;20486;-69
2023/08/25 13:20:01;;;;;;;;;;;13.10;99.90;;;;;;5113382;28;20206;-67
2023/08/25 13:22:28;;;;;;;;;;;13.00;99.90;;;;;;5113513;28;20632;-68
2023/08/25 13:24:55;;;;;;;;;;;12.90;99.90;;;;;;5112403;28;20549;-68
2023/08/25 13:27:22;;;;;;;;;;;12.80;99.90;;;;;;5113330;28;20600;-67
2023/08/25 13:29:49;;;;;;;;;;;12.80;99.90;;;;;;5113482;28;20472;-67
2023/08/25 13:32:17;;;;;;;;;;;12.80;99.90;;;;;;5113077;28;20232;-67
2023/08/25 13:34:43;;;;;;;;;;;12.70;99.90;;;;;;5112698;28;20157;-67
2023/08/25 13:37:10;;;;;;;;;;;12.60;99.90;;;;;;5112703;28;20026;-68
2023/08/25 13:39:38;;;;;;;;;;;12.60;99.90;;;;;;5112850;28;20193;-66
2023/08/25 13:42:08;;;;;;;;;;;12.50;99.90;;;;;;5112667;28;20116;-67
2023/08/25 13:44:38;;;;;;;;;;;12.50;99.90;;;;;;5113553;28;20483;-67
2023/08/25 13:47:08;;;;;;;;;;;12.50;99.90;;;;;;5113694;28;20155;-67
2023/08/25 13:49:36;;;;;;;;;;;12.50;99.90;;;;;;5112496;28;20171;-68
2023/08/25 13:52:03;;;;;;;;;;;12.30;99.90;;;;;;5112415;28;20060;-67
2023/08/25 13:54:30;;;;;;;;;;;12.30;99.90;;;;;;5093964;28;20193;-67
2023/08/25 13:56:57;;;;;;;;;;;12.20;99.90;;;;;;5113177;28;20229;-67
2023/08/25 13:59:24;;;;;;;;;;;12.30;99.90;;;;;;5111996;28;20189;-67
2023/08/25 14:01:51;;;;;;;;;;;12.30;99.90;;;;;;5112205;28;20142;-68
2023/08/25 14:04:18;;;;;;;;;;;12.30;99.90;;;;;;5112877;28;20177;-67
2023/08/25 14:06:45;;;;;;;;;;;12.30;99.90;;;;;;5112861;28;20172;-69
2023/08/25 14:09:12;;;;;;;;;;;12.20;99.90;;;;;;5112542;28;20516;-69
2023/08/25 14:11:39;;;;;;;;;;;12.30;99.90;;;;;;5112720;28;20514;-67
2023/08/25 14:14:05;;;;;;;;;;;12.30;99.90;;;;;;5112777;28;20001;-67
2023/08/25 14:16:34;;;;;;;;;;;12.20;99.90;;;;;;5112465;28;20158;-69
2023/08/25 14:19:01;;;;;;;;;;;12.20;99.90;;;;;;5093926;28;20199;-69